<?xml version="1.0" encoding="UTF-8" standalone="no" ?>
<gpx xmlns="http://www.topografix.com/GPX/1/1" xmlns:xsi="http://www.w3.org/2001/XMLSchema-instance" xsi:schemaLocation="http://www.topografix.com/GPX/1/1 http://www.topografix.com/GPX/1/1/gpx.xsd" version="1.1" creator="VisuGPX - https://www.visugpx.com">
  <metadata>
    <name>12966757-Sommand/Praz de Lys g2</name>
  </metadata>
  <trk>
    <name><![CDATA[12966757-Sommand/Praz de Lys g1]]></name>
    <extensions>
      <line xmlns="http://www.topografix.com/GPX/gpx_style/0/2">
        <color>0000FF</color>
        <width>8</width>
      </line>
    </extensions>
    <trkseg>
      <trkpt lat="46.16149" lon="6.55626">
        <ele>1427.8</ele>
        <time>2021-04-30T16:34:08Z</time>
      </trkpt>
      <trkpt lat="46.16149" lon="6.55626">
        <ele>1428</ele>
        <time>2021-04-30T16:34:08Z</time>
      </trkpt>
      <trkpt lat="46.16151" lon="6.55277">
        <ele>1417.3</ele>
        <time>2021-04-30T16:38:58Z</time>
      </trkpt>
      <trkpt lat="46.162" lon="6.55176">
        <ele>1423</ele>
        <time>2021-04-30T16:41:10Z</time>
      </trkpt>
      <trkpt lat="46.16337" lon="6.55193">
        <ele>1438</ele>
        <time>2021-04-30T16:43:00Z</time>
      </trkpt>
      <trkpt lat="46.16539" lon="6.55021">
        <ele>1466</ele>
        <time>2021-04-30T16:46:07Z</time>
      </trkpt>
      <trkpt lat="46.16643" lon="6.55103">
        <ele>1481</ele>
        <time>2021-04-30T16:47:42Z</time>
      </trkpt>
      <trkpt lat="46.16747" lon="6.55292">
        <ele>1489</ele>
        <time>2021-04-30T16:49:56Z</time>
      </trkpt>
      <trkpt lat="46.1683" lon="6.55506">
        <ele>1498</ele>
        <time>2021-04-30T16:52:12Z</time>
      </trkpt>
      <trkpt lat="46.16866" lon="6.55708">
        <ele>1490</ele>
        <time>2021-04-30T16:54:08Z</time>
      </trkpt>
      <trkpt lat="46.16889" lon="6.5594">
        <ele>1490</ele>
        <time>2021-04-30T16:56:18Z</time>
      </trkpt>
      <trkpt lat="46.17002" lon="6.56064">
        <ele>1524</ele>
        <time>2021-04-30T16:58:11Z</time>
      </trkpt>
      <trkpt lat="46.17124" lon="6.56094">
        <ele>1555</ele>
        <time>2021-04-30T16:59:50Z</time>
      </trkpt>
      <trkpt lat="46.17231" lon="6.56154">
        <ele>1580</ele>
        <time>2021-04-30T17:01:22Z</time>
      </trkpt>
      <trkpt lat="46.17225" lon="6.56244">
        <ele>1576</ele>
        <time>2021-04-30T17:02:12Z</time>
      </trkpt>
      <trkpt lat="46.17145" lon="6.5633">
        <ele>1555</ele>
        <time>2021-04-30T17:03:32Z</time>
      </trkpt>
      <trkpt lat="46.17103" lon="6.56416">
        <ele>1559</ele>
        <time>2021-04-30T17:04:31Z</time>
      </trkpt>
      <trkpt lat="46.17029" lon="6.56442">
        <ele>1555</ele>
        <time>2021-04-30T17:05:32Z</time>
      </trkpt>
      <trkpt lat="46.16976" lon="6.56455">
        <ele>1555</ele>
        <time>2021-04-30T17:06:15Z</time>
      </trkpt>
      <trkpt lat="46.16922" lon="6.56442">
        <ele>1552</ele>
        <time>2021-04-30T17:06:59Z</time>
      </trkpt>
      <trkpt lat="46.16839" lon="6.5648">
        <ele>1550</ele>
        <time>2021-04-30T17:08:08Z</time>
      </trkpt>
      <trkpt lat="46.16729" lon="6.56476">
        <ele>1537</ele>
        <time>2021-04-30T17:09:36Z</time>
      </trkpt>
      <trkpt lat="46.16595" lon="6.56489">
        <ele>1519</ele>
        <time>2021-04-30T17:11:24Z</time>
      </trkpt>
      <trkpt lat="46.16491" lon="6.56506">
        <ele>1507</ele>
        <time>2021-04-30T17:12:48Z</time>
      </trkpt>
      <trkpt lat="46.16417" lon="6.56536">
        <ele>1505</ele>
        <time>2021-04-30T17:13:49Z</time>
      </trkpt>
      <trkpt lat="46.16343" lon="6.56648">
        <ele>1518</ele>
        <time>2021-04-30T17:15:15Z</time>
      </trkpt>
      <trkpt lat="46.1631" lon="6.56858">
        <ele>1536</ele>
        <time>2021-04-30T17:17:15Z</time>
      </trkpt>
      <trkpt lat="46.16253" lon="6.57128">
        <ele>1543</ele>
        <time>2021-04-30T17:19:51Z</time>
      </trkpt>
      <trkpt lat="46.16346" lon="6.57373">
        <ele>1563</ele>
        <time>2021-04-30T17:22:26Z</time>
      </trkpt>
      <trkpt lat="46.16488" lon="6.57703">
        <ele>1565</ele>
        <time>2021-04-30T17:26:01Z</time>
      </trkpt>
      <trkpt lat="46.16631" lon="6.57961">
        <ele>1550</ele>
        <time>2021-04-30T17:29:05Z</time>
      </trkpt>
      <trkpt lat="46.16821" lon="6.58072">
        <ele>1585</ele>
        <time>2021-04-30T17:31:49Z</time>
      </trkpt>
      <trkpt lat="46.16913" lon="6.58188">
        <ele>1578</ele>
        <time>2021-04-30T17:33:27Z</time>
      </trkpt>
      <trkpt lat="46.16979" lon="6.58222">
        <ele>1580.3</ele>
      </trkpt>
      <trkpt lat="46.17081" lon="6.58249">
        <ele>1597.5</ele>
      </trkpt>
      <trkpt lat="46.17173" lon="6.58242">
        <ele>1620.3</ele>
      </trkpt>
      <trkpt lat="46.17173" lon="6.58321">
        <ele>1624.1</ele>
      </trkpt>
      <trkpt lat="46.17238" lon="6.58358">
        <ele>1641.2</ele>
      </trkpt>
      <trkpt lat="46.17277" lon="6.58402">
        <ele>1650.1</ele>
      </trkpt>
      <trkpt lat="46.17265" lon="6.58478">
        <ele>1647.1</ele>
      </trkpt>
      <trkpt lat="46.17373" lon="6.58609">
        <ele>1653.3</ele>
      </trkpt>
      <trkpt lat="46.17381" lon="6.58764">
        <ele>1644.2</ele>
      </trkpt>
      <trkpt lat="46.17364" lon="6.58836">
        <ele>1637.2</ele>
      </trkpt>
      <trkpt lat="46.17366" lon="6.59021">
        <ele>1644.6</ele>
      </trkpt>
      <trkpt lat="46.17267" lon="6.59233">
        <ele>1644.7</ele>
      </trkpt>
      <trkpt lat="46.17243" lon="6.59344">
        <ele>1650.4</ele>
      </trkpt>
      <trkpt lat="46.1726" lon="6.59496">
        <ele>1655.1</ele>
      </trkpt>
      <trkpt lat="46.17101" lon="6.59383">
        <ele>1644.9</ele>
      </trkpt>
      <trkpt lat="46.17148" lon="6.5906">
        <ele>1570.5</ele>
      </trkpt>
      <trkpt lat="46.17163" lon="6.58858">
        <ele>1563.6</ele>
      </trkpt>
      <trkpt lat="46.17026" lon="6.58851">
        <ele>1526</ele>
      </trkpt>
      <trkpt lat="46.16953" lon="6.59021">
        <ele>1516.8</ele>
      </trkpt>
      <trkpt lat="46.16866" lon="6.58818">
        <ele>1472.6</ele>
      </trkpt>
      <trkpt lat="46.16787" lon="6.58801">
        <ele>1447.3</ele>
      </trkpt>
      <trkpt lat="46.16769" lon="6.58668">
        <ele>1445.3</ele>
      </trkpt>
      <trkpt lat="46.16733" lon="6.5854">
        <ele>1462.4</ele>
      </trkpt>
      <trkpt lat="46.16682" lon="6.58419">
        <ele>1491</ele>
      </trkpt>
      <trkpt lat="46.16581" lon="6.5838">
        <ele>1490.9</ele>
      </trkpt>
      <trkpt lat="46.16518" lon="6.58239">
        <ele>1505.3</ele>
      </trkpt>
      <trkpt lat="46.16502" lon="6.5816">
        <ele>1509.5</ele>
      </trkpt>
      <trkpt lat="46.16437" lon="6.58086">
        <ele>1523.1</ele>
      </trkpt>
      <trkpt lat="46.16419" lon="6.57946">
        <ele>1536.3</ele>
      </trkpt>
      <trkpt lat="46.1641" lon="6.5784">
        <ele>1550.8</ele>
      </trkpt>
      <trkpt lat="46.16272" lon="6.57628">
        <ele>1586</ele>
      </trkpt>
      <trkpt lat="46.16127" lon="6.5766">
        <ele>1628</ele>
      </trkpt>
      <trkpt lat="46.15881" lon="6.57616">
        <ele>1718.2</ele>
      </trkpt>
      <trkpt lat="46.15674" lon="6.57515">
        <ele>1752.6</ele>
      </trkpt>
      <trkpt lat="46.15514" lon="6.57428">
        <ele>1739.5</ele>
      </trkpt>
      <trkpt lat="46.15393" lon="6.57278">
        <ele>1726.1</ele>
      </trkpt>
      <trkpt lat="46.15165" lon="6.57216">
        <ele>1779.9</ele>
      </trkpt>
      <trkpt lat="46.15131" lon="6.56898">
        <ele>1849.4</ele>
      </trkpt>
      <trkpt lat="46.15203" lon="6.5661">
        <ele>1761.2</ele>
      </trkpt>
      <trkpt lat="46.15435" lon="6.56603">
        <ele>1649</ele>
      </trkpt>
      <trkpt lat="46.15382" lon="6.56255">
        <ele>1579.2</ele>
      </trkpt>
      <trkpt lat="46.15437" lon="6.559">
        <ele>1545.2</ele>
      </trkpt>
      <trkpt lat="46.15545" lon="6.55702">
        <ele>1525.5</ele>
      </trkpt>
      <trkpt lat="46.15639" lon="6.55618">
        <ele>1500.9</ele>
      </trkpt>
      <trkpt lat="46.15606" lon="6.55467">
        <ele>1476.5</ele>
      </trkpt>
      <trkpt lat="46.1583" lon="6.55572">
        <ele>1453.8</ele>
      </trkpt>
      <trkpt lat="46.1605" lon="6.55648">
        <ele>1434.6</ele>
        <time>2021-04-30T17:36:45Z</time>
      </trkpt>
      <trkpt lat="46.16149" lon="6.55626">
        <ele>1427.8</ele>
        <time>2021-04-30T16:34:08Z</time>
      </trkpt>
    </trkseg>
  </trk>
</gpx>